Time;durP1;ratioP1;P1;durP2;ratioP2;P2;SDS_P1;SDS_P2;PMS_P1;PMS_P2;Temp;Humidity;BMP_temperature;BMP_pressure;BME280_temperature;BME280_humidity;BME280_pressure;Samples;Min_cycle;Max_cycle;Signal;HPM_P1;HPM_P2
2022/09/11 00:00:48;;;;;;;2.17;1.83;;;24.50;53.30;;;;;;5049049;28;20148;-53
2022/09/11 00:03:14;;;;;;;2.00;1.80;;;24.50;53.30;;;;;;5046960;28;20029;-53
2022/09/11 00:05:40;;;;;;;2.10;1.80;;;24.50;53.30;;;;;;5047085;28;20039;-50
2022/09/11 00:08:07;;;;;;;2.63;1.95;;;24.50;53.20;;;;;;5051459;28;20036;-51
2022/09/11 00:10:36;;;;;;;2.53;2.25;;;24.50;53.20;;;;;;5049283;28;20065;-51
2022/09/11 00:13:03;;;;;;;2.42;1.90;;;24.50;53.20;;;;;;5050031;28;20040;-52
2022/09/11 00:15:29;;;;;;;4.05;2.47;;;24.50;53.20;;;;;;5049391;28;20163;-53
2022/09/11 00:17:55;;;;;;;2.35;2.00;;;24.50;53.20;;;;;;5051164;28;20104;-51
2022/09/11 00:20:22;;;;;;;2.67;1.70;;;24.50;53.10;;;;;;5046524;28;20029;-52
2022/09/11 00:22:48;;;;;;;2.45;1.73;;;24.50;53.10;;;;;;5048458;28;20025;-51
2022/09/11 00:25:14;;;;;;;2.75;1.83;;;24.50;53.10;;;;;;5049500;28;20025;-55
2022/09/11 00:27:39;;;;;;;2.10;1.90;;;24.50;53.10;;;;;;5045946;28;20044;-53
2022/09/11 00:30:05;;;;;;;3.13;1.60;;;24.50;53.10;;;;;;5049594;28;20040;-54
2022/09/11 00:32:32;;;;;;;2.22;1.75;;;24.40;53.00;;;;;;5048432;28;20111;-53
2022/09/11 00:34:58;;;;;;;2.67;1.95;;;24.40;53.00;;;;;;5045497;28;20044;-51
2022/09/11 00:37:23;;;;;;;2.13;1.90;;;24.40;53.00;;;;;;5050343;28;20021;-52
2022/09/11 00:39:50;;;;;;;2.47;1.92;;;24.40;52.90;;;;;;5050158;28;20025;-52
2022/09/11 00:42:16;;;;;;;2.42;1.85;;;24.40;52.90;;;;;;5045482;28;20200;-53
2022/09/11 00:44:42;;;;;;;3.72;1.80;;;24.40;52.90;;;;;;5034921;28;20033;-51
2022/09/11 00:47:08;;;;;;;2.20;1.90;;;24.40;52.90;;;;;;5049767;28;20065;-54
2022/09/11 00:49:45;;;;;;;2.15;1.73;;;24.40;52.90;;;;;;5049565;28;20037;-51
2022/09/11 00:52:31;;;;;;;2.58;2.08;;;24.40;53.00;;;;;;5047140;28;20511;-51
2022/09/11 00:55:07;;;;;;;2.10;1.77;;;24.40;53.00;;;;;;5033506;28;20136;-49
2022/09/11 00:57:52;;;;;;;2.13;1.92;;;24.40;52.90;;;;;;5047416;28;20108;-51
2022/09/11 01:00:18;;;;;;;2.10;1.80;;;24.40;52.90;;;;;;5047442;28;20032;-53
2022/09/11 01:02:47;;;;;;;2.65;1.95;;;24.40;52.90;;;;;;5048463;28;20093;-51
2022/09/11 01:05:15;;;;;;;2.10;1.70;;;24.40;53.00;;;;;;5035696;28;20342;-51
2022/09/11 01:07:42;;;;;;;1.80;1.70;;;24.40;52.90;;;;;;5044985;28;20478;-53
2022/09/11 01:10:09;;;;;;;2.75;1.90;;;24.40;52.90;;;;;;5049207;28;20432;-54
2022/09/11 01:12:52;;;;;;;2.10;1.90;;;24.40;52.90;;;;;;5047281;28;20032;-50
2022/09/11 01:15:34;;;;;;;1.90;1.70;;;24.30;52.80;;;;;;5046986;28;20029;-49
2022/09/11 01:18:21;;;;;;;2.67;1.85;;;24.30;52.80;;;;;;5048729;28;20033;-48
2022/09/11 01:21:09;;;;;;;2.38;2.00;;;24.40;52.90;;;;;;5046381;28;20051;-50
2022/09/11 01:23:56;;;;;;;2.15;1.80;;;24.30;52.80;;;;;;5033787;28;20449;-54
2022/09/11 01:26:33;;;;;;;2.55;1.92;;;24.30;52.80;;;;;;5042651;28;20033;-55
2022/09/11 01:29:08;;;;;;;2.22;1.90;;;24.30;52.80;;;;;;5046037;28;20029;-51
2022/09/11 01:31:41;;;;;;;1.90;1.70;;;24.30;52.80;;;;;;5046619;28;20367;-52
2022/09/11 01:34:20;;;;;;;2.00;1.80;;;24.30;52.80;;;;;;5034496;28;20346;-50
2022/09/11 01:37:09;;;;;;;1.88;1.60;;;24.30;52.80;;;;;;5050958;28;20025;-51
2022/09/11 01:39:42;;;;;;;2.28;1.90;;;24.30;52.70;;;;;;5045714;28;20036;-50
2022/09/11 01:42:13;;;;;;;2.33;1.70;;;24.30;52.70;;;;;;5046750;28;20057;-51
2022/09/11 01:44:51;;;;;;;3.13;1.80;;;24.30;52.70;;;;;;5045905;28;20036;-54
2022/09/11 01:47:19;;;;;;;1.80;1.70;;;24.30;52.70;;;;;;5045298;28;20041;-49
2022/09/11 01:50:01;;;;;;;2.20;2.00;;;24.30;52.70;;;;;;5046792;28;20029;-53
2022/09/11 01:52:52;;;;;;;2.55;1.92;;;24.30;52.70;;;;;;5045980;28;20033;-52
2022/09/11 01:55:34;;;;;;;2.38;1.60;;;24.30;52.70;;;;;;5048665;28;20025;-49
2022/09/11 01:58:07;;;;;;;1.88;1.70;;;24.20;52.70;;;;;;5043724;28;20033;-51
2022/09/11 02:00:38;;;;;;;2.25;2.00;;;24.20;52.70;;;;;;5042836;28;20241;-50
2022/09/11 02:03:23;;;;;;;2.80;1.95;;;24.20;52.70;;;;;;5043560;28;20021;-52
2022/09/11 02:05:59;;;;;;;2.10;1.90;;;24.20;52.70;;;;;;5045377;28;20102;-51
2022/09/11 02:08:43;;;;;;;2.85;2.05;;;24.20;52.70;;;;;;5042607;28;20502;-51
2022/09/11 02:11:14;;;;;;;2.00;1.80;;;24.20;52.70;;;;;;5044159;28;20033;-52
2022/09/11 02:13:48;;;;;;;3.63;1.90;;;24.20;52.60;;;;;;5046112;28;20026;-55
2022/09/11 02:16:28;;;;;;;3.13;2.17;;;24.20;52.60;;;;;;5044768;28;20163;-54
2022/09/11 02:19:01;;;;;;;2.38;2.00;;;24.20;52.60;;;;;;5044621;28;20037;-54
2022/09/11 02:21:28;;;;;;;2.63;2.00;;;24.20;52.60;;;;;;5046410;28;20089;-54
2022/09/11 02:23:54;;;;;;;2.65;2.17;;;24.20;52.60;;;;;;5047328;28;20033;-52
2022/09/11 02:26:26;;;;;;;2.53;1.98;;;24.20;52.60;;;;;;5046846;28;20041;-51
2022/09/11 02:28:53;;;;;;;3.08;2.33;;;24.20;52.60;;;;;;5046577;28;20682;-56
2022/09/11 02:31:19;;;;;;;3.33;2.33;;;24.20;52.60;;;;;;5060825;28;20071;-51
2022/09/11 02:33:46;;;;;;;3.03;2.58;;;24.20;52.60;;;;;;5043977;28;20021;-51
2022/09/11 02:36:25;;;;;;;2.90;1.85;;;24.20;52.60;;;;;;5048113;28;20032;-52
2022/09/11 02:39:04;;;;;;;2.22;1.95;;;24.20;52.50;;;;;;5045583;28;20059;-51
2022/09/11 02:41:50;;;;;;;2.22;1.77;;;24.20;52.60;;;;;;5046126;28;20131;-52
2022/09/11 02:44:42;;;;;;;2.45;2.00;;;24.20;52.50;;;;;;5044531;28;20475;-52
2022/09/11 02:47:33;;;;;;;2.60;2.17;;;24.20;52.50;;;;;;5042483;28;20065;-54
2022/09/11 02:50:01;;;;;;;2.40;2.08;;;24.20;52.50;;;;;;5044128;28;20317;-53
2022/09/11 02:52:40;;;;;;;3.25;2.45;;;24.20;52.60;;;;;;5047063;28;20032;-56
2022/09/11 02:55:26;;;;;;;2.55;2.30;;;24.10;52.50;;;;;;5033153;28;20075;-54
2022/09/11 02:57:56;;;;;;;2.47;2.20;;;24.20;52.60;;;;;;5046345;28;20045;-55
2022/09/11 03:00:22;;;;;;;2.30;2.10;;;24.20;52.60;;;;;;5040281;28;20033;-56
2022/09/11 03:02:48;;;;;;;2.65;2.15;;;24.10;52.50;;;;;;5046200;28;20351;-54
2022/09/11 03:05:14;;;;;;;2.55;2.33;;;24.10;52.60;;;;;;5046252;28;20437;-50
2022/09/11 03:07:40;;;;;;;2.40;2.20;;;24.10;52.60;;;;;;5044831;28;20140;-56
2022/09/11 03:10:10;;;;;;;3.10;2.50;;;24.10;52.60;;;;;;5042373;28;20043;-52
2022/09/11 03:12:36;;;;;;;3.92;2.55;;;24.10;52.60;;;;;;5047490;28;20021;-54
2022/09/11 03:15:02;;;;;;;2.72;2.33;;;24.10;52.60;;;;;;5044418;28;20041;-50
2022/09/11 03:17:28;;;;;;;2.65;2.20;;;24.10;52.60;;;;;;5044150;28;20033;-52
2022/09/11 03:19:53;;;;;;;3.55;2.75;;;24.10;52.60;;;;;;5046664;28;20360;-54
2022/09/11 03:22:19;;;;;;;3.53;2.60;;;24.10;52.60;;;;;;5044395;28;20025;-51
2022/09/11 03:24:45;;;;;;;2.75;2.15;;;24.10;52.60;;;;;;5046945;28;20032;-49
2022/09/11 03:27:11;;;;;;;2.35;2.00;;;24.10;52.60;;;;;;5046219;28;20055;-50
2022/09/11 03:29:39;;;;;;;2.88;2.17;;;24.10;52.60;;;;;;5037925;28;20045;-48
2022/09/11 03:32:05;;;;;;;3.13;2.35;;;24.10;52.60;;;;;;5029285;28;20025;-51
2022/09/11 03:34:32;;;;;;;2.45;2.25;;;24.10;52.60;;;;;;5044667;28;20060;-51
2022/09/11 03:36:59;;;;;;;2.83;2.38;;;24.10;52.50;;;;;;5044176;28;20039;-49
2022/09/11 03:39:25;;;;;;;2.70;2.17;;;24.10;52.50;;;;;;5046910;28;20061;-53
2022/09/11 03:41:50;;;;;;;3.28;2.60;;;24.10;52.50;;;;;;5031484;28;20054;-55
2022/09/11 03:44:16;;;;;;;3.35;2.58;;;24.10;52.50;;;;;;5046754;28;20025;-50
2022/09/11 03:46:43;;;;;;;2.70;2.50;;;24.10;52.40;;;;;;5040700;28;20041;-48
2022/09/11 03:49:09;;;;;;;2.25;2.05;;;24.10;52.40;;;;;;5030623;28;20045;-53
2022/09/11 03:51:35;;;;;;;2.53;1.90;;;24.10;52.40;;;;;;5035948;28;20104;-52
2022/09/11 03:54:02;;;;;;;2.30;2.10;;;24.10;52.40;;;;;;5046620;28;20032;-50
2022/09/11 03:56:29;;;;;;;4.72;2.08;;;24.10;52.40;;;;;;5044265;28;20025;-52
2022/09/11 03:58:57;;;;;;;2.45;2.00;;;24.00;52.30;;;;;;5047911;28;20029;-53
2022/09/11 04:01:23;;;;;;;2.83;2.17;;;24.10;52.30;;;;;;5044072;28;20212;-48
2022/09/11 04:03:51;;;;;;;2.25;2.00;;;24.10;52.30;;;;;;5043323;28;20025;-54
2022/09/11 04:06:24;;;;;;;1.83;1.57;;;24.00;52.20;;;;;;5042975;28;20463;-52
2022/09/11 04:08:50;;;;;;;2.20;1.90;;;24.00;52.20;;;;;;5030112;28;20302;-53
2022/09/11 04:11:17;;;;;;;2.63;1.75;;;24.00;52.20;;;;;;5045038;28;20063;-52
2022/09/11 04:13:44;;;;;;;2.33;1.75;;;24.00;52.20;;;;;;5045433;28;20120;-51
2022/09/11 04:16:18;;;;;;;2.10;1.90;;;24.00;52.20;;;;;;5041058;28;20021;-54
2022/09/11 04:18:48;;;;;;;2.25;1.83;;;24.00;52.20;;;;;;5045494;28;20040;-55
2022/09/11 04:21:16;;;;;;;2.15;1.75;;;24.00;52.20;;;;;;5061372;28;20433;-54
2022/09/11 04:23:44;;;;;;;2.13;1.73;;;24.00;52.20;;;;;;5045452;28;20017;-52
2022/09/11 04:26:15;;;;;;;2.00;1.70;;;24.00;52.20;;;;;;5046854;28;20059;-54
2022/09/11 04:28:43;;;;;;;1.92;1.70;;;24.00;52.10;;;;;;5032502;28;20112;-51
2022/09/11 04:31:12;;;;;;;2.20;1.80;;;24.00;52.10;;;;;;5044734;28;20028;-53
2022/09/11 04:33:38;;;;;;;3.00;1.65;;;24.00;52.10;;;;;;5049114;28;20164;-53
2022/09/11 04:36:06;;;;;;;2.15;1.95;;;24.00;52.10;;;;;;5047993;28;20032;-51
2022/09/11 04:38:32;;;;;;;2.15;1.77;;;24.00;52.10;;;;;;5049222;28;20491;-54
2022/09/11 04:41:03;;;;;;;1.52;1.42;;;24.00;52.10;;;;;;5047240;28;20021;-55
2022/09/11 04:43:33;;;;;;;1.75;1.60;;;24.00;52.00;;;;;;5046145;28;20025;-52
2022/09/11 04:46:12;;;;;;;1.77;1.60;;;23.90;52.00;;;;;;5041959;28;20080;-50
2022/09/11 04:48:48;;;;;;;1.92;1.50;;;24.00;52.00;;;;;;5051776;28;20330;-50
2022/09/11 04:51:23;;;;;;;1.95;1.73;;;24.00;51.90;;;;;;5041898;28;20033;-55
2022/09/11 04:53:51;;;;;;;1.45;1.25;;;24.00;51.90;;;;;;5049527;28;20437;-51
2022/09/11 04:56:21;;;;;;;1.33;1.23;;;23.90;51.80;;;;;;5029291;28;20029;-53
2022/09/11 04:59:04;;;;;;;1.58;1.45;;;23.90;51.70;;;;;;5048484;28;20029;-54
2022/09/11 05:01:32;;;;;;;1.77;1.42;;;24.00;51.70;;;;;;5040917;28;20088;-54
2022/09/11 05:04:01;;;;;;;1.95;1.33;;;23.90;51.70;;;;;;5049576;28;20034;-52
2022/09/11 05:06:29;;;;;;;1.50;1.40;;;23.90;51.70;;;;;;5044289;28;20052;-54
2022/09/11 05:09:05;;;;;;;1.42;1.33;;;23.90;51.70;;;;;;5049421;28;20051;-54
2022/09/11 05:11:34;;;;;;;1.70;1.60;;;23.90;51.60;;;;;;5041734;28;20467;-51
2022/09/11 05:14:00;;;;;;;1.77;1.38;;;23.90;51.60;;;;;;5048701;28;20099;-51
2022/09/11 05:16:29;;;;;;;1.38;1.27;;;23.90;51.60;;;;;;5043189;28;20060;-56
2022/09/11 05:18:57;;;;;;;1.63;1.50;;;23.90;51.60;;;;;;5066101;28;20398;-53
2022/09/11 05:21:26;;;;;;;1.50;1.40;;;23.90;51.60;;;;;;5045785;28;20448;-50
2022/09/11 05:23:54;;;;;;;1.88;1.67;;;23.90;51.60;;;;;;5045157;28;20033;-53
2022/09/11 05:26:25;;;;;;;1.50;1.40;;;23.90;51.60;;;;;;5041719;28;20047;-52
2022/09/11 05:28:59;;;;;;;2.17;1.50;;;23.90;51.60;;;;;;5047044;28;20377;-52
2022/09/11 05:31:25;;;;;;;1.52;1.42;;;23.90;51.60;;;;;;5040351;28;20022;-54
2022/09/11 05:33:57;;;;;;;1.60;1.42;;;23.90;51.60;;;;;;5041529;28;20036;-53
2022/09/11 05:36:25;;;;;;;2.67;1.50;;;23.90;51.60;;;;;;5048113;28;20025;-54
2022/09/11 05:38:52;;;;;;;1.38;1.05;;;23.90;51.60;;;;;;5048532;28;20082;-54
2022/09/11 05:41:18;;;;;;;1.80;1.40;;;23.90;51.50;;;;;;5047624;28;20045;-53
2022/09/11 05:43:44;;;;;;;1.30;1.20;;;23.90;51.50;;;;;;5046506;28;20029;-53
2022/09/11 05:46:12;;;;;;;1.60;1.50;;;23.90;51.50;;;;;;5043992;28;20025;-53
2022/09/11 05:48:38;;;;;;;2.05;1.60;;;23.90;52.10;;;;;;5044921;28;20403;-55
2022/09/11 05:51:09;;;;;;;1.70;1.60;;;23.90;51.50;;;;;;5046457;28;20031;-50
2022/09/11 05:53:36;;;;;;;1.58;1.30;;;23.90;51.60;;;;;;5048003;28;20044;-54
2022/09/11 05:56:18;;;;;;;1.45;1.30;;;23.90;51.50;;;;;;5031151;28;20026;-54
2022/09/11 05:58:46;;;;;;;1.80;1.55;;;23.90;51.50;;;;;;5036842;28;20037;-54
2022/09/11 06:01:16;;;;;;;1.50;1.40;;;23.90;51.50;;;;;;5045660;28;20119;-54
2022/09/11 06:03:46;;;;;;;1.42;1.20;;;23.90;51.50;;;;;;5045466;28;20025;-49
2022/09/11 06:06:12;;;;;;;1.50;1.40;;;23.90;51.50;;;;;;5043867;28;20060;-54
2022/09/11 06:08:42;;;;;;;2.13;1.27;;;23.90;51.50;;;;;;5045308;28;20052;-54
2022/09/11 06:11:08;;;;;;;2.90;1.65;;;23.90;51.50;;;;;;5045519;28;20043;-53
2022/09/11 06:13:39;;;;;;;3.05;1.60;;;23.90;51.60;;;;;;5030848;28;20044;-52
2022/09/11 06:16:17;;;;;;;2.15;1.45;;;23.90;51.70;;;;;;5033350;28;20441;-55
2022/09/11 06:18:47;;;;;;;1.40;1.30;;;23.90;51.70;;;;;;5045934;28;20059;-49
2022/09/11 06:21:19;;;;;;;1.48;1.38;;;23.90;51.70;;;;;;5046311;28;20410;-50
2022/09/11 06:24:11;;;;;;;1.40;1.20;;;23.90;51.70;;;;;;5037710;28;20037;-51
2022/09/11 06:26:38;;;;;;;2.10;1.40;;;23.90;51.70;;;;;;5046022;28;20049;-53
2022/09/11 06:29:03;;;;;;;1.30;1.20;;;23.90;51.80;;;;;;5053534;28;20025;-52
2022/09/11 06:31:34;;;;;;;3.13;1.70;;;23.90;51.80;;;;;;5034232;28;20025;-55
2022/09/11 06:34:00;;;;;;;1.40;1.00;;;23.90;51.80;;;;;;5034495;28;20126;-55
2022/09/11 06:36:26;;;;;;;1.90;1.35;;;23.90;51.90;;;;;;5034781;28;20425;-55
2022/09/11 06:38:54;;;;;;;1.75;1.55;;;23.90;52.00;;;;;;5041643;28;20456;-54
2022/09/11 06:41:23;;;;;;;1.52;1.35;;;23.90;52.00;;;;;;5046725;28;20456;-54
2022/09/11 06:43:52;;;;;;;1.80;1.40;;;23.90;52.10;;;;;;5045139;28;20345;-55
2022/09/11 06:46:21;;;;;;;2.20;1.52;;;23.90;52.10;;;;;;5051551;28;20068;-55
2022/09/11 06:48:49;;;;;;;1.60;1.23;;;23.90;52.10;;;;;;5047652;28;20099;-55
2022/09/11 06:51:18;;;;;;;1.73;1.50;;;23.90;52.10;;;;;;5051306;28;20444;-53
2022/09/11 06:53:46;;;;;;;1.60;1.30;;;23.90;52.10;;;;;;5045352;28;20049;-52
2022/09/11 06:56:15;;;;;;;1.85;1.45;;;23.90;52.10;;;;;;5051714;28;20372;-55
2022/09/11 06:58:44;;;;;;;2.65;1.63;;;23.90;52.10;;;;;;5040983;28;20029;-52
2022/09/11 07:01:15;;;;;;;2.03;1.40;;;23.90;52.10;;;;;;5034341;28;20033;-52
2022/09/11 07:03:44;;;;;;;1.50;1.40;;;23.90;52.10;;;;;;5050991;28;20091;-52
2022/09/11 07:06:13;;;;;;;2.55;1.42;;;23.90;52.20;;;;;;5049773;28;20052;-51
2022/09/11 07:08:42;;;;;;;1.73;1.50;;;24.00;52.30;;;;;;5050716;28;20045;-53
2022/09/11 07:11:12;;;;;;;1.52;1.20;;;23.90;52.30;;;;;;5050626;28;20116;-54
2022/09/11 07:13:39;;;;;;;2.17;1.40;;;23.90;52.30;;;;;;5033705;28;20072;-54
2022/09/11 07:16:07;;;;;;;1.58;1.48;;;24.00;52.40;;;;;;5050592;28;20085;-54
2022/09/11 07:18:42;;;;;;;1.50;1.40;;;23.90;52.40;;;;;;5053928;28;20045;-54
2022/09/11 07:21:20;;;;;;;1.60;1.40;;;24.00;52.50;;;;;;5053779;28;20029;-52
2022/09/11 07:23:55;;;;;;;1.40;1.30;;;24.00;52.50;;;;;;5030669;28;20025;-53
2022/09/11 07:26:22;;;;;;;1.40;1.30;;;24.00;52.50;;;;;;5034404;28;20412;-51
2022/09/11 07:28:51;;;;;;;3.28;1.80;;;23.90;52.50;;;;;;5049769;28;20040;-55
2022/09/11 07:31:20;;;;;;;1.85;1.58;;;24.00;52.50;;;;;;5068296;28;20352;-54
2022/09/11 07:33:48;;;;;;;1.67;1.58;;;23.90;52.50;;;;;;5035128;28;20099;-51
2022/09/11 07:36:17;;;;;;;2.08;1.75;;;24.00;52.60;;;;;;5032770;28;20021;-54
2022/09/11 07:38:47;;;;;;;8.23;1.70;;;24.00;52.60;;;;;;5046425;28;20032;-54
2022/09/11 07:41:16;;;;;;;1.83;1.60;;;24.00;52.60;;;;;;5041414;28;20353;-53
2022/09/11 07:43:44;;;;;;;1.90;1.70;;;24.00;52.70;;;;;;5039060;28;20029;-54
2022/09/11 07:46:12;;;;;;;2.05;1.60;;;24.00;52.70;;;;;;5033785;28;20504;-52
2022/09/11 07:48:39;;;;;;;1.55;1.45;;;24.00;52.70;;;;;;5049551;28;20025;-52
2022/09/11 07:51:07;;;;;;;1.67;1.58;;;24.00;52.80;;;;;;5050383;28;20036;-55
2022/09/11 07:53:36;;;;;;;2.40;1.67;;;24.00;52.80;;;;;;5050068;28;20045;-53
2022/09/11 07:56:04;;;;;;;2.85;1.67;;;24.00;52.90;;;;;;5044918;28;20018;-54
2022/09/11 07:58:34;;;;;;;2.42;1.85;;;24.00;53.00;;;;;;5049841;28;20124;-56
2022/09/11 08:01:15;;;;;;;2.83;1.70;;;24.00;53.10;;;;;;5036400;28;20036;-56
2022/09/11 08:03:41;;;;;;;5.47;1.98;;;24.00;53.20;;;;;;5037199;28;20034;-53
2022/09/11 08:06:14;;;;;;;3.42;2.38;;;24.00;53.40;;;;;;5036943;28;20361;-50
2022/09/11 08:08:44;;;;;;;3.80;2.42;;;24.10;53.50;;;;;;5037498;28;20086;-52
2022/09/11 08:11:16;;;;;;;3.35;2.30;;;24.00;53.50;;;;;;5049414;28;20033;-53
2022/09/11 08:13:45;;;;;;;2.90;2.13;;;24.10;53.60;;;;;;5037915;28;20041;-53
2022/09/11 08:16:11;;;;;;;2.47;1.83;;;24.10;53.60;;;;;;5053488;28;20034;-52
2022/09/11 08:18:38;;;;;;;2.38;1.80;;;24.10;53.60;;;;;;5037452;28;20036;-54
2022/09/11 08:21:07;;;;;;;2.08;1.38;;;24.10;53.60;;;;;;5038433;28;20425;-53
2022/09/11 08:23:34;;;;;;;3.65;1.20;;;24.10;53.60;;;;;;5037002;28;20029;-50
2022/09/11 08:26:21;;;;;;;2.88;1.25;;;24.10;53.70;;;;;;5036718;28;20040;-49
2022/09/11 08:28:51;;;;;;;1.75;1.23;;;24.10;53.70;;;;;;5036897;28;20029;-50
2022/09/11 08:31:20;;;;;;;2.80;1.58;;;24.10;53.70;;;;;;5033318;28;20036;-49
2022/09/11 08:33:48;;;;;;;2.30;1.20;;;24.10;53.70;;;;;;5056073;28;20025;-53
2022/09/11 08:36:14;;;;;;;1.88;1.42;;;24.10;53.80;;;;;;5039612;28;20029;-55
2022/09/11 08:38:43;;;;;;;1.48;1.30;;;24.10;53.80;;;;;;5033111;28;20032;-53
2022/09/11 08:41:21;;;;;;;2.30;1.13;;;24.10;53.80;;;;;;5057059;28;20048;-55
2022/09/11 08:43:55;;;;;;;2.05;1.23;;;24.10;53.80;;;;;;5041638;28;20149;-54
2022/09/11 08:46:25;;;;;;;2.33;1.13;;;24.10;53.80;;;;;;5034696;28;20144;-54
2022/09/11 08:49:04;;;;;;;2.40;1.33;;;24.20;53.80;;;;;;5040097;28;20452;-54
2022/09/11 08:51:30;;;;;;;2.83;1.98;;;24.10;53.70;;;;;;5036287;28;20033;-52
2022/09/11 08:54:00;;;;;;;1.88;1.25;;;24.20;53.70;;;;;;5036399;28;20403;-55
2022/09/11 08:56:37;;;;;;;1.33;1.20;;;24.20;53.70;;;;;;5035480;28;20095;-53
2022/09/11 08:59:32;;;;;;;2.13;1.40;;;24.20;53.70;;;;;;5047063;28;20120;-51
2022/09/11 09:02:30;;;;;;;1.80;1.15;;;24.20;53.60;;;;;;5070643;28;20132;-56
2022/09/11 09:05:22;;;;;;;1.92;1.17;;;24.20;53.60;;;;;;5030746;28;20087;-53
2022/09/11 09:08:00;;;;;;;3.08;1.40;;;24.20;53.60;;;;;;5044523;28;20368;-53
2022/09/11 09:10:29;;;;;;;1.88;1.50;;;24.20;53.60;;;;;;5035973;28;20449;-54
2022/09/11 09:13:14;;;;;;;1.52;1.38;;;24.20;53.60;;;;;;5036630;28;20095;-52
2022/09/11 09:15:52;;;;;;;2.08;1.70;;;24.20;53.60;;;;;;5039137;28;20099;-55
2022/09/11 09:18:49;;;;;;;3.40;2.45;;;24.20;53.70;;;;;;5036029;28;20029;-54
2022/09/11 09:21:46;;;;;;;12.00;6.72;;;24.20;53.80;;;;;;5045301;28;20037;-54
2022/09/11 09:24:19;;;;;;;15.63;8.43;;;24.30;55.00;;;;;;5016018;28;20436;-56
2022/09/11 09:26:53;;;;;;;22.60;9.48;;;24.30;56.30;;;;;;5026583;28;20051;-57
2022/09/11 09:29:25;;;;;;;17.05;9.13;;;24.30;57.40;;;;;;5042031;28;20033;-53
2022/09/11 09:32:04;;;;;;;15.95;9.65;;;24.30;58.20;;;;;;5063628;28;20098;-54
2022/09/11 09:34:36;;;;;;;33.05;14.20;;;24.30;58.80;;;;;;5063291;28;20025;-53
2022/09/11 09:37:20;;;;;;;32.80;14.90;;;24.40;59.80;;;;;;5027943;28;20030;-56
2022/09/11 09:39:47;;;;;;;28.77;13.27;;;24.40;60.80;;;;;;5014518;28;20025;-56
2022/09/11 09:42:38;;;;;;;23.67;10.88;;;24.40;60.90;;;;;;5025545;28;20049;-57
2022/09/11 09:45:36;;;;;;;17.17;8.68;;;24.50;60.60;;;;;;5043255;28;20068;-57
2022/09/11 09:48:02;;;;;;;14.30;7.57;;;24.50;59.90;;;;;;5050273;28;20463;-57
2022/09/11 09:50:38;;;;;;;18.05;8.80;;;24.50;59.90;;;;;;5052047;28;20033;-55
2022/09/11 09:53:26;;;;;;;16.52;7.53;;;24.50;60.20;;;;;;5051736;28;20056;-54
2022/09/11 09:55:54;;;;;;;15.88;8.00;;;24.60;60.50;;;;;;5038367;28;20049;-54
2022/09/11 09:58:25;;;;;;;15.82;8.70;;;24.60;60.90;;;;;;5040012;28;20040;-56
2022/09/11 10:00:52;;;;;;;17.88;8.80;;;24.60;61.10;;;;;;5036368;28;20037;-52
2022/09/11 10:03:24;;;;;;;12.40;7.20;;;24.60;61.30;;;;;;5043589;28;20028;-54
2022/09/11 10:05:53;;;;;;;12.57;7.00;;;24.70;61.40;;;;;;5042204;28;20020;-54
2022/09/11 10:08:39;;;;;;;11.48;6.05;;;24.70;61.00;;;;;;5047600;28;20056;-55
2022/09/11 10:11:07;;;;;;;10.10;5.72;;;24.70;60.30;;;;;;5043841;28;20028;-53
2022/09/11 10:13:38;;;;;;;12.82;6.78;;;24.70;60.10;;;;;;5043245;28;20035;-52
2022/09/11 10:16:21;;;;;;;10.30;5.78;;;24.80;60.10;;;;;;5046950;28;20060;-56
2022/09/11 10:18:48;;;;;;;8.57;5.23;;;24.80;60.00;;;;;;5041643;28;20352;-53
2022/09/11 10:21:21;;;;;;;12.98;4.70;;;24.80;59.90;;;;;;5041950;28;20041;-53
2022/09/11 10:23:52;;;;;;;16.23;3.85;;;24.80;59.50;;;;;;5028902;28;20512;-53
2022/09/11 10:26:32;;;;;;;7.78;4.05;;;24.80;59.10;;;;;;5035690;28;20037;-56
2022/09/11 10:29:29;;;;;;;7.50;3.35;;;24.90;58.80;;;;;;5033413;28;20322;-59
2022/09/11 10:31:58;;;;;;;8.80;3.78;;;24.90;58.40;;;;;;5032484;28;20613;-56
2022/09/11 10:34:26;;;;;;;5.57;3.28;;;24.90;58.10;;;;;;5037358;28;20029;-56
2022/09/11 10:37:01;;;;;;;5.10;2.95;;;24.90;57.70;;;;;;5042008;28;20103;-55
2022/09/11 10:39:30;;;;;;;5.03;3.13;;;24.90;57.20;;;;;;5040284;28;20041;-57
2022/09/11 10:41:59;;;;;;;4.63;3.03;;;24.90;56.90;;;;;;5039072;28;20055;-55
2022/09/11 10:44:26;;;;;;;5.15;2.88;;;24.90;56.60;;;;;;5040612;28;20021;-55
2022/09/11 10:47:27;;;;;;;6.60;3.20;;;25.00;56.30;;;;;;5041825;28;20039;-51
2022/09/11 10:50:16;;;;;;;4.63;3.03;;;25.00;56.00;;;;;;5044241;28;20075;-53
2022/09/11 10:53:11;;;;;;;5.05;2.95;;;25.00;55.70;;;;;;5034887;28;20124;-53
2022/09/11 10:55:41;;;;;;;5.22;3.08;;;25.00;55.50;;;;;;5037501;28;20139;-54
2022/09/11 10:58:13;;;;;;;3.25;2.70;;;25.00;55.40;;;;;;5041741;28;20026;-55
2022/09/11 11:00:39;;;;;;;3.22;2.55;;;25.00;55.20;;;;;;5038603;28;20471;-52
2022/09/11 11:03:20;;;;;;;4.38;2.70;;;25.00;55.20;;;;;;5038236;28;20519;-49
2022/09/11 11:05:52;;;;;;;5.18;2.63;;;25.00;55.00;;;;;;5041481;28;20021;-53
2022/09/11 11:08:28;;;;;;;4.60;2.65;;;25.00;54.80;;;;;;5035988;28;20840;-57
2022/09/11 11:11:15;;;;;;;4.07;2.90;;;25.00;54.80;;;;;;5027298;28;20505;-60
2022/09/11 11:14:12;;;;;;;4.22;2.70;;;25.00;54.70;;;;;;5036596;28;20025;-59
2022/09/11 11:17:03;;;;;;;5.78;2.17;;;25.10;54.70;;;;;;5035251;28;20368;-54
2022/09/11 11:19:50;;;;;;;4.10;2.53;;;25.10;54.70;;;;;;5035539;28;20041;-54
2022/09/11 11:22:24;;;;;;;3.63;2.47;;;25.10;54.60;;;;;;5019751;28;20468;-55
2022/09/11 11:25:05;;;;;;;3.13;1.95;;;25.10;54.50;;;;;;5019623;28;20060;-51
2022/09/11 11:28:06;;;;;;;3.80;2.28;;;25.20;54.40;;;;;;5019908;28;20183;-53
2022/09/11 11:30:51;;;;;;;3.05;2.20;;;25.20;54.30;;;;;;5015902;28;20038;-54
2022/09/11 11:33:31;;;;;;;4.07;2.33;;;25.20;54.10;;;;;;5030053;28;20472;-55
2022/09/11 11:36:14;;;;;;;3.63;2.25;;;25.20;54.10;;;;;;5025756;28;20068;-54
2022/09/11 11:38:49;;;;;;;3.10;2.40;;;25.20;54.00;;;;;;5023805;28;20041;-53
2022/09/11 11:41:43;;;;;;;3.58;2.53;;;25.20;53.90;;;;;;5021591;28;20429;-54
2022/09/11 11:44:18;;;;;;;3.10;1.98;;;25.20;53.70;;;;;;5022758;28;20045;-54
2022/09/11 11:46:51;;;;;;;2.95;1.95;;;25.20;53.60;;;;;;5032262;28;20064;-56
2022/09/11 11:49:40;;;;;;;3.42;2.10;;;25.30;53.60;;;;;;5040854;28;20108;-52
2022/09/11 11:52:29;;;;;;;3.22;2.40;;;25.30;53.50;;;;;;5042350;28;20038;-55
2022/09/11 11:55:15;;;;;;;3.17;1.83;;;25.30;53.40;;;;;;5041645;28;20033;-53
2022/09/11 11:57:52;;;;;;;2.22;1.55;;;25.30;53.30;;;;;;5040177;28;20440;-50
2022/09/11 12:00:19;;;;;;;2.60;2.08;;;25.30;53.20;;;;;;5042711;28;20033;-53
2022/09/11 12:03:14;;;;;;;2.90;1.60;;;25.30;53.10;;;;;;5044446;28;20020;-54
2022/09/11 12:05:40;;;;;;;3.10;1.73;;;25.30;52.90;;;;;;5039232;28;20449;-55
2022/09/11 12:08:12;;;;;;;2.72;1.83;;;25.30;52.90;;;;;;5043065;28;20037;-55
2022/09/11 12:10:41;;;;;;;3.03;1.65;;;25.40;52.90;;;;;;5034337;28;20048;-56
2022/09/11 12:13:14;;;;;;;2.75;1.60;;;25.40;52.80;;;;;;5032190;28;20033;-56
2022/09/11 12:16:01;;;;;;;2.30;1.55;;;25.40;52.70;;;;;;5042398;28;20040;-57
2022/09/11 12:18:28;;;;;;;2.08;1.58;;;25.40;52.60;;;;;;5043036;28;20412;-56
2022/09/11 12:21:22;;;;;;;2.72;1.55;;;25.40;52.50;;;;;;5039612;28;20039;-57
2022/09/11 12:23:48;;;;;;;1.75;1.20;;;25.40;52.50;;;;;;5038845;28;20076;-56
2022/09/11 12:26:24;;;;;;;3.67;1.42;;;25.40;52.40;;;;;;5040846;28;20024;-55
2022/09/11 12:29:18;;;;;;;2.25;1.50;;;25.40;52.30;;;;;;5038807;28;20040;-54
2022/09/11 12:31:50;;;;;;;2.38;1.40;;;25.40;52.20;;;;;;5038838;28;20074;-56
2022/09/11 12:34:18;;;;;;;2.10;1.27;;;25.40;52.20;;;;;;5041434;28;20087;-55
2022/09/11 12:37:06;;;;;;;1.90;1.27;;;25.50;52.20;;;;;;5041617;28;20382;-56
2022/09/11 12:39:57;;;;;;;1.73;1.23;;;25.50;52.10;;;;;;5039648;28;20037;-56
2022/09/11 12:42:24;;;;;;;2.95;1.50;;;25.50;52.00;;;;;;5037733;28;20026;-57
2022/09/11 12:44:49;;;;;;;2.03;1.05;;;25.50;51.90;;;;;;5037416;28;20408;-56
2022/09/11 12:47:32;;;;;;;1.40;1.30;;;25.50;51.80;;;;;;5041345;28;20036;-55
2022/09/11 12:50:09;;;;;;;1.88;1.33;;;25.50;51.70;;;;;;5036535;28;20360;-57
2022/09/11 12:52:43;;;;;;;1.80;1.35;;;25.50;51.60;;;;;;5042805;28;20108;-57
2022/09/11 12:55:42;;;;;;;1.55;1.23;;;25.60;51.80;;;;;;5039490;28;20765;-55
2022/09/11 12:58:19;;;;;;;1.77;1.25;;;25.60;51.50;;;;;;5029387;28;20079;-58
2022/09/11 13:00:49;;;;;;;2.47;1.42;;;25.60;51.50;;;;;;5040155;28;20028;-57
2022/09/11 13:03:26;;;;;;;2.38;1.48;;;25.60;51.50;;;;;;5040374;28;20337;-57
2022/09/11 13:05:58;;;;;;;1.20;1.10;;;25.60;51.40;;;;;;5037091;28;20057;-58
2022/09/11 13:08:37;;;;;;;1.20;1.10;;;25.60;51.30;;;;;;5054308;28;20048;-53
2022/09/11 13:11:37;;;;;;;1.67;1.50;;;25.60;51.30;;;;;;5036418;28;20029;-57
2022/09/11 13:14:28;;;;;;;1.98;1.30;;;25.70;51.20;;;;;;5034468;28;20116;-58
2022/09/11 13:16:56;;;;;;;1.58;1.20;;;25.60;51.10;;;;;;5016722;28;20044;-54